This is the latest recevied weather packets stored in our database for station/object SP4IM-13. If no packets are shown the sender has not sent any weather packets the latest 1 day(s).
| Time | Temp. | Humidity | Pressure | Rain* | Wind** | Luminosity | Snow |
|---|---|---|---|---|---|---|---|
| 1778095202 | 20° C | 60% | 1004 hPa | - | - | - | - |
| 1778094602 | 20.56° C | 59% | 1004 hPa | - | - | - | - |
| 1778086803 | 24.44° C | 48% | 1002 hPa | - | - | - | - |
| 1778082603 | 26.11° C | 44% | 1002 hPa | - | - | - | - |
| 1778073002 | 27.22° C | 37% | 1002 hPa | - | - | - | - |
| 1778069403 | 27.78° C | 42% | 1002 hPa | - | - | - | - |
| 1778068802 | 27.78° C | 43% | 1002 hPa | - | - | - | - |
| 1778060402 | 21.67° C | 63% | 1004 hPa | - | - | - | - |
| 1778059803 | 21.67° C | 64% | 1004 hPa | - | - | - | - |
| 1778059203 | 21.11° C | 65% | 1004 hPa | - | - | - | - |
| 1778058602 | 21.11° C | 65% | 1004 hPa | - | - | - | - |
| 1778055605 | 20.56° C | 65% | 1004 hPa | - | - | - | - |
| 1778051405 | 15.56° C | 66% | 1004 hPa | - | - | - | - |
| 1778050805 | 15.56° C | 69% | 1004 hPa | - | - | - | - |
| 1778049003 | 14.44° C | 79% | 1005 hPa | - | - | - | - |
| 1778046608 | 13.33° C | 77% | 1005 hPa | - | - | - | - |
| 1778046005 | 12.78° C | 77% | 1005 hPa | - | - | - | - |
| 1778044804 | 12.22° C | 76% | 1005 hPa | - | - | - | - |
| 1778043004 | 11.67° C | 72% | 1005 hPa | - | - | - | - |
| 1778042405 | 11.11° C | 76% | 1005 hPa | - | - | - | - |
| 1778040603 | 11.11° C | 91% | 1005 hPa | - | - | - | - |
| 1778038805 | 10.56° C | 91% | 1005 hPa | - | - | - | - |
| 1778037606 | 10.56° C | 90% | 1005 hPa | - | - | - | - |
| 1778037005 | 10.56° C | 90% | 1005 hPa | - | - | - | - |
| 1778036406 | 10.56° C | 90% | 1005 hPa | - | - | - | - |
* Rain since midnight (hover to see other rain measurements)
** Current wind speed in m/s (hover to see current wind gust speed)